createdAt,value
2023-05-19T00:01:00.433Z,3.50
2023-05-19T00:03:27.175Z,3.97
2023-05-19T00:05:54.113Z,4.07
2023-05-19T00:08:22.656Z,4.45
2023-05-19T00:10:49.132Z,4.03
2023-05-19T00:13:15.980Z,4.00
2023-05-19T00:15:42.543Z,3.83
2023-05-19T00:18:09.062Z,4.05
2023-05-19T00:20:35.950Z,4.15
2023-05-19T00:23:02.319Z,3.90
2023-05-19T00:25:31.208Z,4.10
2023-05-19T00:27:59.202Z,4.00
2023-05-19T00:30:25.877Z,4.00
2023-05-19T00:32:52.305Z,3.85
2023-05-19T00:35:18.787Z,3.50
2023-05-19T00:37:45.645Z,4.10
2023-05-19T00:40:12.153Z,4.10
2023-05-19T00:42:38.647Z,4.18
2023-05-19T00:45:05.409Z,5.00
2023-05-19T00:47:31.886Z,3.97
2023-05-19T00:49:58.428Z,3.90
2023-05-19T00:52:27.777Z,4.05
2023-05-19T00:54:57.577Z,4.20
2023-05-19T00:57:24.098Z,3.95
2023-05-19T00:59:50.593Z,4.45
2023-05-19T01:02:18.066Z,4.30
2023-05-19T01:04:44.865Z,4.15
2023-05-19T01:07:12.496Z,3.88
2023-05-19T01:09:40.883Z,4.22
2023-05-19T01:12:07.722Z,3.90
2023-05-19T01:14:36.614Z,4.55
2023-05-19T01:17:10.017Z,4.15
2023-05-19T01:19:39.526Z,4.43
2023-05-19T01:22:06.853Z,4.15
2023-05-19T01:24:33.506Z,4.20
2023-05-19T01:27:08.800Z,4.35
2023-05-19T01:29:44.215Z,4.30
2023-05-19T01:32:11.916Z,4.38
2023-05-19T01:34:39.876Z,4.50
2023-05-19T01:37:07.102Z,4.65
2023-05-19T01:39:33.509Z,4.70
2023-05-19T01:42:01.552Z,4.07
2023-05-19T01:44:28.738Z,4.95
2023-05-19T01:46:58.659Z,5.07
2023-05-19T01:49:25.120Z,4.15
2023-05-19T01:51:52.681Z,4.82
2023-05-19T01:54:19.144Z,5.05
2023-05-19T01:56:51.846Z,4.90
2023-05-19T01:59:38.395Z,4.53
2023-05-19T02:02:09.360Z,5.05
2023-05-19T02:04:45.011Z,4.68
2023-05-19T02:07:14.670Z,4.90
2023-05-19T02:09:47.073Z,4.60
2023-05-19T02:12:25.881Z,5.10
2023-05-19T02:15:12.349Z,4.40
2023-05-19T02:17:41.713Z,5.95
2023-05-19T02:20:11.780Z,5.30
2023-05-19T02:22:38.310Z,5.38
2023-05-19T02:25:05.004Z,4.90
2023-05-19T02:27:33.883Z,5.20
2023-05-19T02:30:00.397Z,5.57
2023-05-19T02:32:26.830Z,5.20
2023-05-19T02:34:53.332Z,5.07
2023-05-19T02:37:23.716Z,5.80
2023-05-19T02:39:52.597Z,5.28
2023-05-19T02:42:19.048Z,5.20
2023-05-19T02:44:45.466Z,5.57
2023-05-19T02:47:14.238Z,5.30
2023-05-19T02:49:41.024Z,5.75
2023-05-19T02:52:07.481Z,6.03
2023-05-19T02:54:34.445Z,5.25
2023-05-19T02:57:01.158Z,5.70
2023-05-19T02:59:27.554Z,6.18
2023-05-19T03:01:59.301Z,5.40
2023-05-19T03:04:25.808Z,5.28
2023-05-19T03:06:52.370Z,5.82
2023-05-19T03:09:18.831Z,5.55
2023-05-19T03:11:45.341Z,5.32
2023-05-19T03:14:14.149Z,5.78
2023-05-19T03:16:43.705Z,5.05
2023-05-19T03:19:10.619Z,5.57
2023-05-19T03:21:37.511Z,6.07
2023-05-19T03:24:04.023Z,5.68
2023-05-19T03:26:30.525Z,5.40
2023-05-19T03:28:56.936Z,5.28
2023-05-19T03:31:23.408Z,5.40
2023-05-19T03:33:49.800Z,5.80
2023-05-19T03:36:16.246Z,5.22
2023-05-19T03:38:42.641Z,5.60
2023-05-19T03:41:09.086Z,5.38
2023-05-19T03:43:35.478Z,5.05
2023-05-19T03:46:02.266Z,5.57
2023-05-19T03:48:31.206Z,5.60
2023-05-19T03:50:58.042Z,5.72
2023-05-19T03:53:24.429Z,5.50
2023-05-19T03:55:50.876Z,4.90
2023-05-19T03:58:17.326Z,4.95
2023-05-19T04:00:43.740Z,5.50
2023-05-19T04:03:10.292Z,5.50
2023-05-19T04:05:36.856Z,6.05
2023-05-19T04:08:03.325Z,5.40
2023-05-19T04:10:29.844Z,5.97
2023-05-19T04:12:56.858Z,5.35
2023-05-19T04:15:26.025Z,5.15
2023-05-19T04:17:55.724Z,5.40
2023-05-19T04:20:22.166Z,5.07
2023-05-19T04:22:48.590Z,5.10
2023-05-19T04:25:15.078Z,5.60
2023-05-19T04:27:41.524Z,5.50
2023-05-19T04:30:08.371Z,5.60
2023-05-19T04:32:37.368Z,5.78
2023-05-19T04:35:04.136Z,4.97
2023-05-19T04:37:30.642Z,6.10
2023-05-19T04:39:57.171Z,5.70
2023-05-19T04:42:26.143Z,5.43
2023-05-19T04:44:52.644Z,5.70
2023-05-19T04:47:21.542Z,5.95
2023-05-19T04:49:48.158Z,5.50
2023-05-19T04:52:14.646Z,5.75
2023-05-19T04:54:41.837Z,5.38
2023-05-19T04:57:08.500Z,5.90
2023-05-19T04:59:35.013Z,5.93
2023-05-19T05:02:01.524Z,5.07
2023-05-19T05:04:30.591Z,5.40
2023-05-19T05:06:57.001Z,5.30
2023-05-19T05:09:23.411Z,5.65
2023-05-19T05:11:50.109Z,5.60
2023-05-19T05:14:16.889Z,5.70
2023-05-19T05:16:43.717Z,5.82
2023-05-19T05:19:10.463Z,5.72
2023-05-19T05:21:37.141Z,5.57
2023-05-19T05:24:03.706Z,5.50
2023-05-19T05:26:31.654Z,5.90
2023-05-19T05:28:58.059Z,5.50
2023-05-19T05:31:24.488Z,5.50
2023-05-19T05:33:50.928Z,6.13
2023-05-19T05:36:17.408Z,5.63
2023-05-19T05:38:43.782Z,5.15
2023-05-19T05:41:10.248Z,5.15
2023-05-19T05:43:36.673Z,5.35
2023-05-19T05:46:03.115Z,5.25
2023-05-19T05:48:29.645Z,5.55
2023-05-19T05:50:56.756Z,5.35
2023-05-19T05:53:24.818Z,5.30
2023-05-19T05:55:51.649Z,5.32
2023-05-19T05:58:18.089Z,5.03
2023-05-19T06:00:45.256Z,4.97
2023-05-19T06:03:11.872Z,5.57
2023-05-19T06:05:38.692Z,5.22
2023-05-19T06:08:05.473Z,5.20
2023-05-19T06:10:32.558Z,4.85
2023-05-19T06:13:01.294Z,4.47
2023-05-19T06:15:27.773Z,5.13
2023-05-19T06:17:54.727Z,4.45
2023-05-19T06:20:21.369Z,5.10
2023-05-19T06:22:47.802Z,4.97
2023-05-19T06:25:14.279Z,4.80
2023-05-19T06:27:40.788Z,4.95
2023-05-19T06:30:08.655Z,4.28
2023-05-19T06:32:35.351Z,5.05
2023-05-19T06:35:04.460Z,4.72
2023-05-19T06:37:31.193Z,4.47
2023-05-19T06:39:57.658Z,4.90
2023-05-19T06:42:25.197Z,4.68
2023-05-19T06:44:52.366Z,4.68
2023-05-19T06:47:18.937Z,4.25
2023-05-19T06:49:45.597Z,4.20
2023-05-19T06:52:12.237Z,4.35
2023-05-19T06:54:38.764Z,4.68
2023-05-19T06:57:05.298Z,4.63
2023-05-19T06:59:33.888Z,4.63
2023-05-19T07:02:02.893Z,4.45
2023-05-19T07:04:29.349Z,4.80
2023-05-19T07:06:55.788Z,4.55
2023-05-19T07:09:22.192Z,4.65
2023-05-19T07:11:48.869Z,4.53
2023-05-19T07:14:15.340Z,4.57
2023-05-19T07:16:44.286Z,4.88
2023-05-19T07:19:10.860Z,5.00
2023-05-19T07:21:37.363Z,4.75
2023-05-19T07:24:03.834Z,5.13
2023-05-19T07:26:30.348Z,4.53
2023-05-19T07:28:57.815Z,4.68
2023-05-19T07:31:24.347Z,5.15
2023-05-19T07:33:52.284Z,5.40
2023-05-19T07:36:20.901Z,4.82
2023-05-19T07:38:47.414Z,4.50
2023-05-19T07:41:13.916Z,5.15
2023-05-19T07:43:40.382Z,5.10
2023-05-19T07:46:06.892Z,5.05
2023-05-19T07:48:33.426Z,4.75
2023-05-19T07:50:59.861Z,4.93
2023-05-19T07:53:28.854Z,5.43
2023-05-19T07:55:58.306Z,4.88
2023-05-19T07:58:25.086Z,4.97
2023-05-19T08:00:51.486Z,4.97
2023-05-19T08:03:18.381Z,4.78
2023-05-19T08:05:45.525Z,5.35
2023-05-19T08:08:11.957Z,5.10
2023-05-19T08:10:38.425Z,5.25
2023-05-19T08:13:05.320Z,5.28
2023-05-19T08:15:31.843Z,6.32
2023-05-19T08:17:58.401Z,5.93
2023-05-19T08:20:24.831Z,5.68
2023-05-19T08:22:51.540Z,6.30
2023-05-19T08:25:19.730Z,5.82
2023-05-19T08:27:46.410Z,5.95
2023-05-19T08:30:13.024Z,6.30
2023-05-19T08:32:39.505Z,5.53
2023-05-19T08:35:06.209Z,5.25
2023-05-19T08:37:34.081Z,5.50
2023-05-19T08:40:00.767Z,5.20
2023-05-19T08:42:27.185Z,5.38
2023-05-19T08:44:53.619Z,5.60
2023-05-19T08:47:20.131Z,5.28
2023-05-19T08:49:49.716Z,5.75
2023-05-19T08:52:27.968Z,5.30
2023-05-19T08:55:00.959Z,5.78
2023-05-19T08:57:27.959Z,5.50
2023-05-19T08:59:55.035Z,4.93
2023-05-19T09:02:22.179Z,6.25
2023-05-19T09:04:48.849Z,6.40
2023-05-19T09:07:15.595Z,6.60
2023-05-19T09:09:43.901Z,6.10
2023-05-19T09:12:11.431Z,6.15
2023-05-19T09:14:38.467Z,5.65
2023-05-19T09:17:05.232Z,5.60
2023-05-19T09:19:32.176Z,6.78
2023-05-19T09:22:00.974Z,6.22
2023-05-19T09:24:28.316Z,5.75
2023-05-19T09:27:00.675Z,6.43
2023-05-19T09:29:27.135Z,6.22
2023-05-19T09:31:54.784Z,6.80
2023-05-19T09:34:22.380Z,6.53
2023-05-19T09:36:49.990Z,6.10
2023-05-19T09:39:17.117Z,6.30
2023-05-19T09:41:43.689Z,6.68
2023-05-19T09:44:29.532Z,6.30
2023-05-19T09:46:56.278Z,5.93
2023-05-19T09:49:23.880Z,6.55
2023-05-19T09:51:51.183Z,5.97
2023-05-19T09:54:17.732Z,6.32
2023-05-19T09:56:44.294Z,6.35
2023-05-19T09:59:11.617Z,6.50
2023-05-19T10:01:41.103Z,6.50
2023-05-19T10:04:07.899Z,6.57
2023-05-19T10:06:34.648Z,6.00
2023-05-19T10:09:01.384Z,6.15
2023-05-19T10:11:29.047Z,6.20
2023-05-19T10:13:55.579Z,6.10
2023-05-19T10:16:22.285Z,6.47
2023-05-19T10:18:49.911Z,6.20
2023-05-19T10:21:16.657Z,6.60
2023-05-19T10:23:45.795Z,6.32
2023-05-19T10:26:12.703Z,6.35
2023-05-19T10:28:41.018Z,6.30
2023-05-19T10:31:09.742Z,6.60
2023-05-19T10:33:50.696Z,6.20
2023-05-19T10:36:29.407Z,6.10
2023-05-19T10:39:06.961Z,5.60
2023-05-19T10:41:46.856Z,5.80
2023-05-19T10:44:23.298Z,5.45
2023-05-19T10:46:50.546Z,5.20
2023-05-19T10:49:22.739Z,5.13
2023-05-19T10:51:52.029Z,5.47
2023-05-19T10:54:39.144Z,5.25
2023-05-19T10:57:07.000Z,5.20
2023-05-19T10:59:35.043Z,5.97
2023-05-19T11:02:04.971Z,5.75
2023-05-19T11:04:51.133Z,5.93
2023-05-19T11:07:20.074Z,5.32
2023-05-19T11:09:52.873Z,5.40
2023-05-19T11:12:24.790Z,4.97
2023-05-19T11:14:54.784Z,5.20
2023-05-19T11:17:22.226Z,5.20
2023-05-19T11:19:55.523Z,4.80
2023-05-19T11:22:26.163Z,5.22
2023-05-19T11:24:54.720Z,4.95
2023-05-19T11:27:24.330Z,5.32
2023-05-19T11:29:53.704Z,5.00
2023-05-19T11:32:20.916Z,4.97
2023-05-19T11:34:48.242Z,5.53
2023-05-19T11:37:14.761Z,4.90
2023-05-19T11:39:41.305Z,4.40
2023-05-19T11:42:11.165Z,4.82
2023-05-19T11:44:38.530Z,4.70
2023-05-19T11:47:05.429Z,4.70
2023-05-19T11:49:31.945Z,4.70
2023-05-19T11:51:59.923Z,5.05
2023-05-19T11:54:31.505Z,4.40
2023-05-19T11:57:00.355Z,4.80
2023-05-19T11:59:35.618Z,4.40
2023-05-19T12:02:03.958Z,5.05
2023-05-19T12:04:31.449Z,5.10
2023-05-19T12:06:57.902Z,5.07
2023-05-19T12:09:24.742Z,4.80
2023-05-19T12:11:51.520Z,4.35
2023-05-19T12:14:19.253Z,4.55
2023-05-19T12:16:45.828Z,4.80
2023-05-19T12:19:12.512Z,4.90
2023-05-19T12:21:39.195Z,4.45
2023-05-19T12:24:08.550Z,4.45
2023-05-19T12:26:35.908Z,4.78
2023-05-19T12:29:02.408Z,4.38
2023-05-19T12:31:31.337Z,4.60
2023-05-19T12:34:01.612Z,4.93
2023-05-19T12:36:31.804Z,4.50
2023-05-19T12:38:58.371Z,3.90
2023-05-19T12:41:27.485Z,4.32
2023-05-19T12:43:59.396Z,4.38
2023-05-19T12:46:28.979Z,5.05
2023-05-19T12:48:59.556Z,4.60
2023-05-19T12:51:26.044Z,3.97
2023-05-19T12:53:52.545Z,4.38
2023-05-19T12:56:19.035Z,4.25
2023-05-19T12:58:53.245Z,4.65
2023-05-19T13:01:19.854Z,4.85
2023-05-19T13:03:49.061Z,4.60
2023-05-19T13:06:15.693Z,4.18
2023-05-19T13:08:42.200Z,4.28
2023-05-19T13:11:08.678Z,4.28
2023-05-19T13:13:35.214Z,4.18
2023-05-19T13:16:01.708Z,4.05
2023-05-19T13:18:28.166Z,4.20
2023-05-19T13:20:57.109Z,4.00
2023-05-19T13:23:23.605Z,4.22
2023-05-19T13:25:50.779Z,3.60
2023-05-19T13:28:17.234Z,3.85
2023-05-19T13:30:44.360Z,4.05
2023-05-19T13:33:11.992Z,3.85
2023-05-19T13:35:39.019Z,4.00
2023-05-19T13:38:12.214Z,3.95
2023-05-19T13:40:39.635Z,4.07
2023-05-19T13:43:07.301Z,3.92
2023-05-19T13:45:33.718Z,4.13
2023-05-19T13:48:00.267Z,3.90
2023-05-19T13:50:26.835Z,3.67
2023-05-19T13:52:53.867Z,3.55
2023-05-19T13:55:23.318Z,4.13
2023-05-19T13:57:50.847Z,3.70
2023-05-19T14:00:18.315Z,3.83
2023-05-19T14:02:45.069Z,3.78
2023-05-19T14:05:11.717Z,3.60
2023-05-19T14:07:40.475Z,3.83
2023-05-19T14:10:07.351Z,3.60
2023-05-19T14:12:44.982Z,3.58
2023-05-19T14:15:21.325Z,3.95
2023-05-19T14:17:49.032Z,3.90
2023-05-19T14:20:15.592Z,3.40
2023-05-19T14:22:42.005Z,4.20
2023-05-19T14:25:08.660Z,3.88
2023-05-19T14:27:35.245Z,3.90
2023-05-19T14:30:01.744Z,3.88
2023-05-19T14:32:30.231Z,3.60
2023-05-19T14:34:57.067Z,3.90
2023-05-19T14:37:24.141Z,3.90
2023-05-19T14:39:50.613Z,3.45
2023-05-19T14:42:19.946Z,3.60
2023-05-19T14:44:46.364Z,3.70
2023-05-19T14:47:12.978Z,3.63
2023-05-19T14:49:39.457Z,3.80
2023-05-19T14:52:06.090Z,3.53
2023-05-19T14:54:32.530Z,3.58
2023-05-19T14:56:58.957Z,4.25
2023-05-19T14:59:25.527Z,3.38
2023-05-19T15:01:54.387Z,4.18
2023-05-19T15:04:24.254Z,3.60
2023-05-19T15:07:05.806Z,3.50
2023-05-19T15:09:36.489Z,3.78
2023-05-19T15:12:02.976Z,3.42
2023-05-19T15:14:31.780Z,3.92
2023-05-19T15:16:58.504Z,3.28
2023-05-19T15:19:25.145Z,3.47
2023-05-19T15:21:51.800Z,3.03
2023-05-19T15:24:19.115Z,3.30
2023-05-19T15:26:45.750Z,3.25
2023-05-19T15:29:12.205Z,3.15
2023-05-19T15:31:38.782Z,2.85
2023-05-19T15:34:05.371Z,2.90
2023-05-19T15:36:31.937Z,2.80
2023-05-19T15:38:58.400Z,2.72
2023-05-19T15:41:24.893Z,2.60
2023-05-19T15:43:51.385Z,2.50
2023-05-19T15:46:19.675Z,2.60
2023-05-19T15:48:46.288Z,2.65
2023-05-19T15:51:12.741Z,2.50
2023-05-19T15:53:39.165Z,2.42
2023-05-19T15:56:05.725Z,2.70
2023-05-19T15:58:34.266Z,2.40
2023-05-19T16:01:00.822Z,2.45
2023-05-19T16:03:27.429Z,2.58
2023-05-19T16:05:54.306Z,2.78
2023-05-19T16:08:21.172Z,2.30
2023-05-19T16:10:47.633Z,2.70
2023-05-19T16:13:14.199Z,2.70
2023-05-19T16:15:43.204Z,3.28
2023-05-19T16:18:09.766Z,3.25
2023-05-19T16:20:36.363Z,3.50
2023-05-19T16:23:03.273Z,3.47
2023-05-19T16:25:30.155Z,2.97
2023-05-19T16:27:58.969Z,3.00
2023-05-19T16:30:26.457Z,2.75
2023-05-19T16:32:55.976Z,3.10
2023-05-19T16:35:23.421Z,3.40
2023-05-19T16:37:49.909Z,3.20
2023-05-19T16:40:16.373Z,3.30
2023-05-19T16:42:42.838Z,3.10
2023-05-19T16:45:09.536Z,3.40
2023-05-19T16:47:38.496Z,3.10
2023-05-19T16:50:05.439Z,3.28
2023-05-19T16:52:31.919Z,3.50
2023-05-19T16:55:00.870Z,3.45
2023-05-19T16:57:27.323Z,2.95
2023-05-19T16:59:53.694Z,3.60
2023-05-19T17:02:20.161Z,3.10
2023-05-19T17:04:46.709Z,3.25
2023-05-19T17:07:17.041Z,2.85
2023-05-19T17:09:43.971Z,3.00
2023-05-19T17:12:10.864Z,3.22
2023-05-19T17:14:37.330Z,3.03
2023-05-19T17:17:03.875Z,2.97
2023-05-19T17:19:30.550Z,3.13
2023-05-19T17:21:57.024Z,2.67
2023-05-19T17:24:26.090Z,3.03
2023-05-19T17:26:52.536Z,2.58
2023-05-19T17:29:21.458Z,2.63
2023-05-19T17:31:47.911Z,2.50
2023-05-19T17:34:16.629Z,3.22
2023-05-19T17:36:43.024Z,3.20
2023-05-19T17:39:09.409Z,3.40
2023-05-19T17:41:35.871Z,2.78
2023-05-19T17:44:03.710Z,3.40
2023-05-19T17:46:34.582Z,3.17
2023-05-19T17:49:03.477Z,3.17
2023-05-19T17:51:30.205Z,3.00
2023-05-19T17:53:56.844Z,2.95
2023-05-19T17:56:24.250Z,3.47
2023-05-19T17:58:51.089Z,3.25
2023-05-19T18:01:18.132Z,2.92
2023-05-19T18:03:49.583Z,2.95
2023-05-19T18:06:16.985Z,2.70
2023-05-19T18:08:46.973Z,3.15
2023-05-19T18:11:16.022Z,2.80
2023-05-19T18:13:42.987Z,2.78
2023-05-19T18:16:09.870Z,2.28
2023-05-19T18:18:37.451Z,2.30
2023-05-19T18:21:04.155Z,2.38
2023-05-19T18:23:33.241Z,2.65
2023-05-19T18:25:59.639Z,2.35
2023-05-19T18:28:26.081Z,2.35
2023-05-19T18:31:06.270Z,2.33
2023-05-19T18:33:33.060Z,2.28
2023-05-19T18:35:59.608Z,2.40
2023-05-19T18:38:30.970Z,2.53
2023-05-19T18:40:57.618Z,2.58
2023-05-19T18:43:24.121Z,2.53
2023-05-19T18:45:50.773Z,2.38
2023-05-19T18:48:17.357Z,2.42
2023-05-19T18:50:44.646Z,2.15
2023-05-19T18:53:13.602Z,2.60
2023-05-19T18:55:40.065Z,2.22
2023-05-19T18:58:06.513Z,2.70
2023-05-19T19:00:35.132Z,2.58
2023-05-19T19:03:02.342Z,2.50
2023-05-19T19:05:28.824Z,2.72
2023-05-19T19:07:55.291Z,2.65
2023-05-19T19:10:21.851Z,2.60
2023-05-19T19:12:50.782Z,2.63
2023-05-19T19:15:17.240Z,2.95
2023-05-19T19:17:44.007Z,2.50
2023-05-19T19:20:10.770Z,2.42
2023-05-19T19:22:37.290Z,2.80
2023-05-19T19:25:06.261Z,2.67
2023-05-19T19:27:35.469Z,2.75
2023-05-19T19:30:01.976Z,2.78
2023-05-19T19:32:28.471Z,2.42
2023-05-19T19:34:54.946Z,2.65
2023-05-19T19:37:21.346Z,2.47
2023-05-19T19:39:47.841Z,2.75
2023-05-19T19:42:16.666Z,2.85
2023-05-19T19:44:43.087Z,3.28
2023-05-19T19:47:09.634Z,2.60
2023-05-19T19:49:36.104Z,2.70
2023-05-19T19:52:02.528Z,3.00
2023-05-19T19:54:29.012Z,3.03
2023-05-19T19:56:55.580Z,2.70
2023-05-19T19:59:24.627Z,3.10
2023-05-19T20:01:54.041Z,3.00
2023-05-19T20:04:23.014Z,2.80
2023-05-19T20:06:49.790Z,2.80
2023-05-19T20:09:16.579Z,2.97
2023-05-19T20:11:45.275Z,2.85
2023-05-19T20:14:14.045Z,3.03
2023-05-19T20:16:41.095Z,3.00
2023-05-19T20:19:09.142Z,2.72
2023-05-19T20:21:35.931Z,2.90
2023-05-19T20:24:02.381Z,3.08
2023-05-19T20:26:29.345Z,3.10
2023-05-19T20:28:59.051Z,3.42
2023-05-19T20:31:25.885Z,3.03
2023-05-19T20:33:52.594Z,2.90
2023-05-19T20:36:19.161Z,3.10
2023-05-19T20:38:48.031Z,2.72
2023-05-19T20:41:14.712Z,2.95
2023-05-19T20:43:43.552Z,3.20
2023-05-19T20:46:10.188Z,3.38
2023-05-19T20:48:36.738Z,3.15
2023-05-19T20:51:03.257Z,3.10
2023-05-19T20:53:29.669Z,2.70
2023-05-19T20:55:56.529Z,3.17
2023-05-19T20:58:29.973Z,3.20
2023-05-19T21:00:58.130Z,3.30
2023-05-19T21:03:25.068Z,3.58
2023-05-19T21:05:51.533Z,3.45
2023-05-19T21:08:18.002Z,3.10
2023-05-19T21:10:44.570Z,3.17
2023-05-19T21:13:11.043Z,3.50
2023-05-19T21:15:37.466Z,3.22
2023-05-19T21:18:04.017Z,3.60
2023-05-19T21:20:30.538Z,3.50
2023-05-19T21:22:56.949Z,3.50
2023-05-19T21:25:23.438Z,3.42
2023-05-19T21:27:51.310Z,3.58
2023-05-19T21:30:17.785Z,3.47
2023-05-19T21:32:46.634Z,3.65
2023-05-19T21:35:13.152Z,3.40
2023-05-19T21:37:42.078Z,3.20
2023-05-19T21:40:11.178Z,3.70
2023-05-19T21:42:37.662Z,3.40
2023-05-19T21:45:04.261Z,4.13
2023-05-19T21:47:30.710Z,3.78
2023-05-19T21:49:57.105Z,3.45
2023-05-19T21:52:26.051Z,3.90
2023-05-19T21:54:52.506Z,3.83
2023-05-19T21:57:18.972Z,3.90
2023-05-19T21:59:45.466Z,3.40
2023-05-19T22:02:14.458Z,3.85
2023-05-19T22:04:43.840Z,3.63
2023-05-19T22:07:10.432Z,3.80
2023-05-19T22:09:37.948Z,4.03
2023-05-19T22:12:04.577Z,3.78
2023-05-19T22:14:31.167Z,3.78
2023-05-19T22:16:59.977Z,4.28
2023-05-19T22:19:26.643Z,4.05
2023-05-19T22:22:09.864Z,4.05
2023-05-19T22:24:42.509Z,4.13
2023-05-19T22:27:08.963Z,4.15
2023-05-19T22:29:39.027Z,4.22
2023-05-19T22:32:06.844Z,4.43
2023-05-19T22:34:33.330Z,4.28
2023-05-19T22:36:59.789Z,4.50
2023-05-19T22:39:26.264Z,4.28
2023-05-19T22:41:52.681Z,4.18
2023-05-19T22:44:19.582Z,4.63
2023-05-19T22:46:46.119Z,4.47
2023-05-19T22:49:14.758Z,4.65
2023-05-19T22:51:41.327Z,4.50
2023-05-19T22:54:07.863Z,4.53
2023-05-19T22:56:34.381Z,4.80
2023-05-19T22:59:00.850Z,4.93
2023-05-19T23:01:27.392Z,4.60
2023-05-19T23:03:54.001Z,4.65
2023-05-19T23:06:21.508Z,4.80
2023-05-19T23:08:57.526Z,4.60
2023-05-19T23:11:23.921Z,4.70
2023-05-19T23:13:50.486Z,4.63
2023-05-19T23:16:16.922Z,4.68
2023-05-19T23:18:43.440Z,5.28
2023-05-19T23:21:09.900Z,5.35
2023-05-19T23:23:36.912Z,5.28
2023-05-19T23:26:03.747Z,5.10
2023-05-19T23:28:30.142Z,5.20
2023-05-19T23:30:56.664Z,5.35
2023-05-19T23:33:23.108Z,5.10
2023-05-19T23:35:49.675Z,5.68
2023-05-19T23:38:16.137Z,5.10
2023-05-19T23:40:43.288Z,5.22
2023-05-19T23:43:09.660Z,4.97
2023-05-19T23:45:36.077Z,5.60
2023-05-19T23:48:02.512Z,5.65
2023-05-19T23:50:29.016Z,5.63
2023-05-19T23:52:55.485Z,5.30
2023-05-19T23:55:22.706Z,5.03
2023-05-19T23:57:49.167Z,5.45
